Time,TemperatureF,DewpointF,PressureIn,WindDirection,WindDirectionDegrees,WindSpeedMPH,WindSpeedGustMPH,Humidity,HourlyPrecipIn,Conditions,Clouds,dailyrainin,SoftwareType,DateUTC
2013-03-08 00:57:00,26.4,20.2,29.60,SSE,158,0.0,0.0,77,0.00,,,0.00,WUHU21623XXSP,2013-03-08 06:57:00,
2013-03-08 01:57:00,25.5,19.3,29.60,SE,135,0.0,0.0,77,0.00,,,0.00,WUHU21623XXSP,2013-03-08 07:57:00,
2013-03-08 02:57:00,25.3,19.4,29.59,SE,135,3.8,3.8,78,0.00,,,0.00,WUHU21623XXSP,2013-03-08 08:57:00,
2013-03-08 03:57:00,25.0,19.4,29.58,SSE,158,2.7,2.7,79,0.00,,,0.00,WUHU21623XXSP,2013-03-08 09:57:00,
2013-03-08 04:57:00,25.2,19.9,29.59,SE,135,6.5,6.5,80,0.00,,,0.00,WUHU21623XXSP,2013-03-08 10:57:00,
2013-03-08 06:02:00,25.0,19.7,29.59,SSE,158,5.6,5.6,80,0.00,,,0.00,WUHU21623XXSP,2013-03-08 12:02:00,
2013-03-08 06:07:00,25.0,19.7,29.60,SE,135,0.0,3.8,80,0.00,,,0.00,WUHU21623XXSP,2013-03-08 12:07:00,
2013-03-08 06:12:00,25.0,19.7,29.60,SE,135,4.5,4.5,80,0.00,,,0.00,WUHU21623XXSP,2013-03-08 12:12:00,
2013-03-08 06:17:00,25.2,19.9,29.60,SE,135,7.2,7.2,80,0.00,,,0.00,WUHU21623XXSP,2013-03-08 12:17:00,
2013-03-08 06:22:00,25.2,19.9,29.59,SSE,157,3.4,7.2,80,0.00,,,0.00,WUHU21623XXSP,2013-03-08 12:22:00,
2013-03-08 06:27:00,25.2,19.9,29.60,SE,135,3.4,3.4,80,0.00,,,0.00,WUHU21623XXSP,2013-03-08 12:27:00,
2013-03-08 06:32:00,25.2,19.9,29.60,SSE,157,4.0,5.8,80,0.00,,,0.00,WUHU21623XXSP,2013-03-08 12:32:00,
2013-03-08 06:37:00,25.2,19.9,29.60,SE,135,4.3,6.7,80,0.00,,,0.00,WUHU21623XXSP,2013-03-08 12:37:00,
2013-03-08 06:42:00,25.3,20.1,29.60,SE,135,7.4,8.5,80,0.00,,,0.00,WUHU21623XXSP,2013-03-08 12:42:00,
2013-03-08 06:47:00,25.3,20.1,29.60,SE,135,7.4,8.5,80,0.00,,,0.00,WUHU21623XXSP,2013-03-08 12:47:00,
2013-03-08 06:52:00,25.5,20.2,29.60,SE,135,6.9,7.4,80,0.00,,,0.00,WUHU21623XXSP,2013-03-08 12:52:00,
2013-03-08 06:57:00,25.5,20.2,29.60,SE,135,4.5,6.9,80,0.00,,,0.00,WUHU21623XXSP,2013-03-08 12:57:00,
2013-03-08 07:02:00,25.9,20.6,29.60,SE,135,5.1,6.9,80,0.00,,,0.00,WUHU21623XXSP,2013-03-08 13:02:00,
2013-03-08 07:07:00,25.9,20.6,29.60,SE,135,6.3,6.9,80,0.00,,,0.00,WUHU21623XXSP,2013-03-08 13:07:00,
2013-03-08 07:12:00,26.2,20.9,29.61,SE,135,7.6,7.6,80,0.00,,,0.00,WUHU21623XXSP,2013-03-08 13:12:00,
2013-03-08 07:17:00,26.4,21.0,29.61,SE,135,1.8,8.9,80,0.00,,,0.00,WUHU21623XXSP,2013-03-08 13:17:00,
2013-03-08 07:22:00,26.8,21.4,29.60,SE,135,4.7,8.9,80,0.00,,,0.00,WUHU21623XXSP,2013-03-08 13:22:00,
2013-03-08 07:27:00,27.1,21.7,29.60,SE,135,5.6,5.6,80,0.00,,,0.00,WUHU21623XXSP,2013-03-08 13:27:00,
2013-03-08 07:32:00,27.5,21.9,29.60,SE,135,0.0,5.6,80,0.00,,,0.00,WUHU21623XXSP,2013-03-08 13:32:00,
2013-03-08 07:37:00,27.7,22.3,29.61,SE,135,3.4,8.7,80,0.00,,,0.00,WUHU21623XXSP,2013-03-08 13:37:00,
2013-03-08 07:42:00,28.2,22.5,29.60,SSE,157,2.0,8.7,79,0.00,,,0.00,WUHU21623XXSP,2013-03-08 13:42:00,
2013-03-08 07:47:00,28.6,22.9,29.61,SE,135,7.2,7.2,79,0.00,,,0.00,WUHU21623XXSP,2013-03-08 13:47:00,
2013-03-08 07:52:00,28.9,23.2,29.61,SE,135,1.6,7.2,79,0.00,,,0.00,WUHU21623XXSP,2013-03-08 13:52:00,
2013-03-08 07:57:00,29.1,23.1,29.61,SSE,157,0.0,4.3,78,0.00,,,0.00,WUHU21623XXSP,2013-03-08 13:57:00,
2013-03-08 08:02:00,29.7,23.6,29.61,SSE,157,2.9,7.6,78,0.00,,,0.00,WUHU21623XXSP,2013-03-08 14:02:00,
2013-03-08 08:07:00,30.0,24.0,29.61,SE,135,6.5,7.6,78,0.00,,,0.00,WUHU21623XXSP,2013-03-08 14:07:00,
2013-03-08 08:12:00,30.4,24.0,29.61,SSE,157,0.0,9.6,77,0.00,,,0.00,WUHU21623XXSP,2013-03-08 14:12:00,
2013-03-08 08:17:00,30.9,24.5,29.61,SE,135,7.6,9.6,77,0.00,,,0.00,WUHU21623XXSP,2013-03-08 14:17:00,
2013-03-08 08:22:00,31.3,24.6,29.61,SSE,157,3.6,7.6,76,0.00,,,0.00,WUHU21623XXSP,2013-03-08 14:22:00,
2013-03-08 08:27:00,31.8,25.1,29.61,SE,135,5.1,6.3,76,0.00,,,0.00,WUHU21623XXSP,2013-03-08 14:27:00,
2013-03-08 08:32:00,32.4,25.6,29.61,SE,135,9.6,9.6,76,0.00,,,0.00,WUHU21623XXSP,2013-03-08 14:32:00,
2013-03-08 08:37:00,32.7,25.6,29.61,SE,135,1.3,9.6,75,0.00,,,0.00,WUHU21623XXSP,2013-03-08 14:37:00,
2013-03-08 08:42:00,32.9,25.5,29.61,SE,135,5.6,13.0,74,0.00,,,0.00,WUHU21623XXSP,2013-03-08 14:42:00,
2013-03-08 08:47:00,33.6,26.1,29.62,SE,135,8.5,13.0,74,0.00,,,0.00,WUHU21623XXSP,2013-03-08 14:47:00,
2013-03-08 08:52:00,33.8,26.0,29.62,ESE,112,6.9,11.9,73,0.00,,,0.00,WUHU21623XXSP,2013-03-08 14:52:00,
2013-03-08 08:57:00,34.3,26.5,29.62,SSE,157,9.2,9.2,73,0.00,,,0.00,WUHU21623XXSP,2013-03-08 14:57:00,
2013-03-08 09:02:00,34.7,26.9,29.62,SE,135,7.2,9.2,73,0.00,,,0.00,WUHU21623XXSP,2013-03-08 15:02:00,
2013-03-08 09:07:00,35.2,26.7,29.62,SE,135,7.6,8.7,72,0.00,,,0.00,WUHU21623XXSP,2013-03-08 15:07:00,
2013-03-08 09:12:00,35.4,26.9,29.62,SE,135,7.8,8.7,71,0.00,,,0.00,WUHU21623XXSP,2013-03-08 15:12:00,
2013-03-08 09:17:00,35.8,27.3,29.62,SE,135,4.0,8.7,71,0.00,,,0.00,WUHU21623XXSP,2013-03-08 15:17:00,
2013-03-08 09:22:00,36.3,27.8,29.62,SE,135,3.4,7.8,71,0.00,,,0.00,WUHU21623XXSP,2013-03-08 15:22:00,
2013-03-08 09:27:00,36.7,28.2,29.62,SSE,157,3.1,6.5,71,0.00,,,0.00,WUHU21623XXSP,2013-03-08 15:27:00,
2013-03-08 09:32:00,37.4,28.6,29.62,SSE,157,3.1,6.5,70,0.00,,,0.00,WUHU21623XXSP,2013-03-08 15:32:00,
2013-03-08 09:37:00,37.8,28.5,29.62,SE,135,6.7,10.7,69,0.00,,,0.00,WUHU21623XXSP,2013-03-08 15:37:00,
2013-03-08 09:42:00,37.9,28.7,29.62,SSE,157,9.8,10.7,69,0.00,,,0.00,WUHU21623XXSP,2013-03-08 15:42:00,
2013-03-08 09:47:00,38.1,28.9,29.61,South,180,5.6,9.8,69,0.00,,,0.00,WUHU21623XXSP,2013-03-08 15:47:00,
2013-03-08 09:52:00,38.3,28.6,29.61,South,180,7.2,7.2,68,0.00,,,0.00,WUHU21623XXSP,2013-03-08 15:52:00,
2013-03-08 09:57:00,38.8,29.1,29.61,SE,135,2.9,8.5,68,0.00,,,0.00,WUHU21623XXSP,2013-03-08 15:57:00,
2013-03-08 10:02:00,39.0,29.3,29.61,SSE,157,10.1,10.1,68,0.00,,,0.00,WUHU21623XXSP,2013-03-08 16:02:00,
2013-03-08 10:07:00,39.4,29.2,29.61,SSE,157,5.4,10.1,67,0.00,,,0.00,WUHU21623XXSP,2013-03-08 16:07:00,
2013-03-08 10:12:00,39.9,29.8,29.61,South,180,8.3,8.3,67,0.00,,,0.00,WUHU21623XXSP,2013-03-08 16:12:00,
2013-03-08 10:17:00,40.3,29.8,29.61,SE,135,5.4,11.0,66,0.00,,,0.00,WUHU21623XXSP,2013-03-08 16:17:00,
2013-03-08 10:22:00,40.6,30.1,29.61,SE,135,7.4,11.4,66,0.00,,,0.00,WUHU21623XXSP,2013-03-08 16:22:00,
2013-03-08 10:27:00,41.0,30.1,29.61,SSE,157,5.6,11.4,65,0.00,,,0.00,WUHU21623XXSP,2013-03-08 16:27:00,
2013-03-08 10:32:00,41.2,30.3,29.61,SSE,157,5.1,5.6,65,0.00,,,0.00,WUHU21623XXSP,2013-03-08 16:32:00,
2013-03-08 10:37:00,41.5,30.6,29.61,SE,135,0.0,5.1,65,0.00,,,0.00,WUHU21623XXSP,2013-03-08 16:37:00,
2013-03-08 10:42:00,41.9,31.0,29.61,South,180,6.7,7.8,65,0.00,,,0.00,WUHU21623XXSP,2013-03-08 16:42:00,
2013-03-08 10:47:00,42.1,30.7,29.60,SE,135,2.7,7.8,64,0.00,,,0.00,WUHU21623XXSP,2013-03-08 16:47:00,
2013-03-08 10:52:00,42.4,31.1,29.60,SE,135,8.1,8.5,64,0.00,,,0.00,WUHU21623XXSP,2013-03-08 16:52:00,
2013-03-08 10:57:00,42.4,31.1,29.60,SE,135,3.6,8.5,64,0.00,,,0.00,WUHU21623XXSP,2013-03-08 16:57:00,
2013-03-08 11:02:00,42.6,30.8,29.60,ESE,112,7.8,10.5,63,0.00,,,0.00,WUHU21623XXSP,2013-03-08 17:02:00,
2013-03-08 11:07:00,42.6,30.8,29.60,SSE,157,11.9,11.9,63,0.00,,,0.00,WUHU21623XXSP,2013-03-08 17:07:00,
2013-03-08 11:12:00,43.0,31.2,29.60,SE,135,5.6,11.9,63,0.00,,,0.00,WUHU21623XXSP,2013-03-08 17:12:00,
2013-03-08 11:17:00,43.0,31.2,29.59,SSE,157,1.1,6.7,63,0.00,,,0.00,WUHU21623XXSP,2013-03-08 17:17:00,
2013-03-08 11:22:00,43.2,31.4,29.59,SSE,157,5.1,9.4,63,0.00,,,0.00,WUHU21623XXSP,2013-03-08 17:22:00,
2013-03-08 11:27:00,43.3,31.2,29.59,SE,135,0.0,9.4,62,0.00,,,0.00,WUHU21623XXSP,2013-03-08 17:27:00,
2013-03-08 11:32:00,43.5,31.3,29.59,SE,135,5.6,8.3,62,0.00,,,0.00,WUHU21623XXSP,2013-03-08 17:32:00,
2013-03-08 11:37:00,43.5,31.3,29.60,SSE,157,0.0,5.6,62,0.00,,,0.00,WUHU21623XXSP,2013-03-08 17:37:00,
2013-03-08 11:42:00,43.9,31.7,29.60,SSE,157,7.6,12.5,62,0.00,,,0.00,WUHU21623XXSP,2013-03-08 17:42:00,
2013-03-08 11:47:00,44.2,32.0,29.60,ESE,112,12.1,12.5,62,0.00,,,0.00,WUHU21623XXSP,2013-03-08 17:47:00,
2013-03-08 11:52:00,44.4,32.2,29.60,SSE,157,6.3,12.1,62,0.00,,,0.00,WUHU21623XXSP,2013-03-08 17:52:00,
2013-03-08 11:57:00,44.6,32.0,29.60,SE,135,7.8,10.5,61,0.00,,,0.00,WUHU21623XXSP,2013-03-08 17:57:00,
2013-03-08 12:02:00,45.0,32.3,29.59,SE,135,2.9,9.4,61,0.00,,,0.00,WUHU21623XXSP,2013-03-08 18:02:00,
2013-03-08 12:07:00,45.0,32.3,29.59,ESE,112,5.8,7.6,61,0.00,,,0.00,WUHU21623XXSP,2013-03-08 18:07:00,
2013-03-08 12:12:00,45.0,32.0,29.59,SSE,157,4.9,8.5,60,0.00,,,0.00,WUHU21623XXSP,2013-03-08 18:12:00,
2013-03-08 12:17:00,45.0,32.0,29.58,SE,135,7.2,8.5,60,0.00,,,0.00,WUHU21623XXSP,2013-03-08 18:17:00,
2013-03-08 12:22:00,45.1,32.1,29.57,SSE,157,0.0,7.6,60,0.00,,,0.00,WUHU21623XXSP,2013-03-08 18:22:00,
2013-03-08 12:27:00,45.3,32.3,29.57,SE,135,4.9,4.9,60,0.00,,,0.00,WUHU21623XXSP,2013-03-08 18:27:00,
2013-03-08 12:32:00,45.5,32.5,29.57,SSE,157,4.5,6.5,60,0.00,,,0.00,WUHU21623XXSP,2013-03-08 18:32:00,
2013-03-08 12:37:00,45.7,32.6,29.56,SSE,157,2.2,6.5,60,0.00,,,0.00,WUHU21623XXSP,2013-03-08 18:37:00,
2013-03-08 12:42:00,46.0,32.9,29.55,SE,135,7.2,8.5,60,0.00,,,0.00,WUHU21623XXSP,2013-03-08 18:42:00,
2013-03-08 12:47:00,46.0,32.9,29.55,SSE,157,1.6,8.5,60,0.00,,,0.00,WUHU21623XXSP,2013-03-08 18:47:00,
2013-03-08 12:52:00,46.2,32.6,29.55,SE,135,1.3,9.4,59,0.00,,,0.00,WUHU21623XXSP,2013-03-08 18:52:00,
2013-03-08 12:57:00,46.2,32.6,29.56,SE,135,11.9,11.9,59,0.00,,,0.00,WUHU21623XXSP,2013-03-08 18:57:00,
2013-03-08 13:02:00,46.2,32.6,29.56,SE,135,6.5,11.9,59,0.00,,,0.00,WUHU21623XXSP,2013-03-08 19:02:00,
2013-03-08 13:07:00,46.2,32.6,29.56,SE,135,6.0,6.5,59,0.00,,,0.00,WUHU21623XXSP,2013-03-08 19:07:00,
2013-03-08 13:12:00,46.2,32.6,29.56,SE,135,5.1,6.7,59,0.00,,,0.00,WUHU21623XXSP,2013-03-08 19:12:00,
2013-03-08 13:17:00,46.2,32.6,29.56,ESE,112,8.1,8.1,59,0.00,,,0.00,WUHU21623XXSP,2013-03-08 19:17:00,
2013-03-08 13:22:00,46.2,32.2,29.56,SE,135,4.3,10.1,58,0.00,,,0.00,WUHU21623XXSP,2013-03-08 19:22:00,
2013-03-08 13:27:00,46.2,32.2,29.55,SE,135,2.0,10.1,58,0.00,,,0.00,WUHU21623XXSP,2013-03-08 19:27:00,
2013-03-08 13:32:00,46.2,32.6,29.55,East,90,0.0,6.3,59,0.00,,,0.00,WUHU21623XXSP,2013-03-08 19:32:00,
2013-03-08 13:37:00,46.0,32.0,29.54,SE,135,1.3,5.6,58,0.00,,,0.00,WUHU21623XXSP,2013-03-08 19:37:00,
2013-03-08 13:42:00,46.0,32.5,29.55,SE,135,6.9,6.9,59,0.00,,,0.00,WUHU21623XXSP,2013-03-08 19:42:00,
2013-03-08 13:47:00,46.0,32.5,29.54,SE,135,11.0,11.0,59,0.00,,,0.00,WUHU21623XXSP,2013-03-08 19:47:00,
2013-03-08 13:52:00,46.0,32.5,29.53,SE,135,2.9,11.0,59,0.00,,,0.00,WUHU21623XXSP,2013-03-08 19:52:00,
2013-03-08 13:57:00,45.9,32.0,29.54,ESE,112,2.2,4.5,58,0.00,,,0.00,WUHU21623XXSP,2013-03-08 19:57:00,
2013-03-08 14:02:00,45.7,32.2,29.54,East,90,0.0,4.5,59,0.00,,,0.00,WUHU21623XXSP,2013-03-08 20:02:00,
2013-03-08 14:07:00,45.7,32.2,29.54,ESE,112,3.1,3.1,59,0.00,,,0.00,WUHU21623XXSP,2013-03-08 20:07:00,
2013-03-08 14:12:00,46.0,32.5,29.54,SSE,157,0.0,7.8,59,0.00,,,0.00,WUHU21623XXSP,2013-03-08 20:12:00,
2013-03-08 14:17:00,46.0,32.5,29.54,SSE,157,6.9,7.8,59,0.00,,,0.00,WUHU21623XXSP,2013-03-08 20:17:00,
2013-03-08 14:22:00,46.0,32.5,29.54,SSE,157,8.1,8.1,59,0.00,,,0.00,WUHU21623XXSP,2013-03-08 20:22:00,
2013-03-08 14:27:00,46.2,32.6,29.54,SE,135,0.0,8.5,59,0.00,,,0.00,WUHU21623XXSP,2013-03-08 20:27:00,
2013-03-08 14:32:00,46.2,32.6,29.54,SE,135,4.5,8.5,59,0.00,,,0.00,WUHU21623XXSP,2013-03-08 20:32:00,
2013-03-08 14:37:00,46.6,32.5,29.54,SE,135,2.7,4.9,58,0.00,,,0.00,WUHU21623XXSP,2013-03-08 20:37:00,
2013-03-08 14:42:00,46.6,32.5,29.53,SE,135,1.6,5.8,58,0.00,,,0.00,WUHU21623XXSP,2013-03-08 20:42:00,
2013-03-08 14:47:00,46.2,32.2,29.54,SE,135,4.9,5.8,58,0.00,,,0.00,WUHU21623XXSP,2013-03-08 20:47:00,
2013-03-08 14:52:00,46.2,32.2,29.54,SE,135,0.0,4.9,58,0.00,,,0.00,WUHU21623XXSP,2013-03-08 20:52:00,
2013-03-08 14:57:00,46.2,32.0,29.54,SE,135,7.6,7.6,59,0.00,,,0.00,WUHU21623XXSP,2013-03-08 20:57:00,
2013-03-08 15:02:00,46.2,32.6,29.54,SE,135,6.9,7.6,59,0.00,,,0.00,WUHU21623XXSP,2013-03-08 21:02:00,
2013-03-08 15:07:00,46.6,33.0,29.54,ESE,112,1.3,6.9,59,0.00,,,0.00,WUHU21623XXSP,2013-03-08 21:07:00,
2013-03-08 15:12:00,46.2,32.2,29.54,SE,135,0.0,6.9,58,0.00,,,0.00,WUHU21623XXSP,2013-03-08 21:12:00,
2013-03-08 15:17:00,46.2,32.2,29.54,SSE,157,1.6,4.5,58,0.00,,,0.00,WUHU21623XXSP,2013-03-08 21:17:00,
2013-03-08 15:22:00,46.0,32.6,29.54,SSE,157,1.6,1.6,59,0.00,,,0.00,WUHU21623XXSP,2013-03-08 21:22:00,
2013-03-08 15:27:00,45.9,32.3,29.54,SE,135,6.3,6.3,59,0.00,,,0.00,WUHU21623XXSP,2013-03-08 21:27:00,
2013-03-08 15:32:00,45.7,32.2,29.53,SE,135,0.0,6.3,60,0.00,,,0.00,WUHU21623XXSP,2013-03-08 21:32:00,
2013-03-08 15:37:00,45.7,32.8,29.53,NE,45,0.0,2.5,60,0.00,,,0.00,WUHU21623XXSP,2013-03-08 21:37:00,
2013-03-08 15:42:00,45.7,32.6,29.52,SE,135,0.0,5.1,60,0.00,,,0.00,WUHU21623XXSP,2013-03-08 21:42:00,
2013-03-08 15:47:00,45.7,32.6,29.52,SE,135,0.0,5.1,60,0.00,,,0.00,WUHU21623XXSP,2013-03-08 21:47:00,
2013-03-08 15:52:00,45.5,32.5,29.52,SE,135,0.0,0.0,60,0.00,,,0.00,WUHU21623XXSP,2013-03-08 21:52:00,
2013-03-08 15:57:00,45.5,32.5,29.53,SE,135,7.4,7.4,60,0.00,,,0.00,WUHU21623XXSP,2013-03-08 21:57:00,
2013-03-08 16:02:00,45.5,32.5,29.53,SE,135,7.4,7.4,61,0.00,,,0.00,WUHU21623XXSP,2013-03-08 22:02:00,
2013-03-08 16:07:00,45.5,32.8,29.53,ESE,112,0.0,7.4,61,0.00,,,0.00,WUHU21623XXSP,2013-03-08 22:07:00,
2013-03-08 16:12:00,45.3,32.7,29.53,SE,135,3.6,3.6,61,0.00,,,0.00,WUHU21623XXSP,2013-03-08 22:12:00,
2013-03-08 16:17:00,45.1,32.5,29.53,SE,135,3.4,3.6,61,0.00,,,0.00,WUHU21623XXSP,2013-03-08 22:17:00,
2013-03-08 16:22:00,45.0,32.0,29.52,SE,135,3.8,3.8,60,0.00,,,0.00,WUHU21623XXSP,2013-03-08 22:22:00,
2013-03-08 16:27:00,44.8,32.2,29.52,SE,135,5.4,8.3,61,0.00,,,0.00,WUHU21623XXSP,2013-03-08 22:27:00,
2013-03-08 16:32:00,44.4,31.8,29.53,SE,135,5.4,8.3,61,0.00,,,0.00,WUHU21623XXSP,2013-03-08 22:32:00,
2013-03-08 16:37:00,44.4,32.2,29.53,SE,135,3.4,5.4,62,0.00,,,0.00,WUHU21623XXSP,2013-03-08 22:37:00,
2013-03-08 16:42:00,43.9,31.7,29.53,SE,135,1.3,5.4,62,0.00,,,0.00,WUHU21623XXSP,2013-03-08 22:42:00,
2013-03-08 16:47:00,43.5,31.3,29.53,SE,135,3.8,3.8,62,0.00,,,0.00,WUHU21623XXSP,2013-03-08 22:47:00,
2013-03-08 16:52:00,43.2,31.4,29.53,SE,135,5.8,5.8,63,0.00,,,0.00,WUHU21623XXSP,2013-03-08 22:52:00,
2013-03-08 16:57:00,42.6,31.2,29.53,SE,135,4.5,5.8,63,0.00,,,0.00,WUHU21623XXSP,2013-03-08 22:57:00,
2013-03-08 17:02:00,42.4,30.7,29.53,SE,135,4.9,4.9,63,0.00,,,0.00,WUHU21623XXSP,2013-03-08 23:02:00,
2013-03-08 17:07:00,42.1,30.7,29.53,SE,135,0.0,4.9,64,0.00,,,0.00,WUHU21623XXSP,2013-03-08 23:07:00,
2013-03-08 17:12:00,41.5,30.2,29.53,SE,135,3.6,3.6,64,0.00,,,0.00,WUHU21623XXSP,2013-03-08 23:12:00,
2013-03-08 17:17:00,41.2,30.3,29.52,SE,135,2.2,7.4,65,0.00,,,0.00,WUHU21623XXSP,2013-03-08 23:17:00,
2013-03-08 17:22:00,40.8,29.9,29.52,SE,135,4.7,7.4,65,0.00,,,0.00,WUHU21623XXSP,2013-03-08 23:22:00,
2013-03-08 17:27:00,40.6,30.1,29.52,SSE,157,0.7,4.7,66,0.00,,,0.00,WUHU21623XXSP,2013-03-08 23:27:00,
2013-03-08 17:32:00,40.3,29.8,29.51,SE,135,0.0,4.7,66,0.00,,,0.00,WUHU21623XXSP,2013-03-08 23:32:00,
2013-03-08 17:37:00,39.9,29.8,29.51,SE,135,0.0,5.4,67,0.00,,,0.00,WUHU21623XXSP,2013-03-08 23:37:00,
2013-03-08 17:42:00,39.7,29.6,29.51,SE,135,2.2,5.4,67,0.00,,,0.00,WUHU21623XXSP,2013-03-08 23:42:00,
2013-03-08 17:47:00,39.7,29.6,29.51,ESE,112,0.0,2.2,67,0.00,,,0.00,WUHU21623XXSP,2013-03-08 23:47:00,
2013-03-08 17:52:00,39.4,29.6,29.51,NE,45,0.0,0.0,68,0.00,,,0.00,WUHU21623XXSP,2013-03-08 23:52:00,
2013-03-08 17:57:00,39.0,29.3,29.51,East,90,0.0,0.0,68,0.00,,,0.00,WUHU21623XXSP,2013-03-08 23:57:00,
2013-03-08 18:02:00,39.0,29.3,29.50,SE,135,0.7,0.7,68,0.00,,,0.00,WUHU21623XXSP,2013-03-09 00:02:00,
2013-03-08 18:07:00,38.5,29.2,29.50,NE,45,0.0,3.1,69,0.00,,,0.00,WUHU21623XXSP,2013-03-09 00:07:00,
2013-03-08 18:12:00,38.3,29.2,29.51,NE,45,0.0,3.1,69,0.00,,,0.00,WUHU21623XXSP,2013-03-09 00:12:00,
2013-03-08 18:17:00,37.9,28.7,29.51,ESE,112,0.0,0.0,69,0.00,,,0.00,WUHU21623XXSP,2013-03-09 00:17:00,
2013-03-08 18:22:00,37.6,28.7,29.50,NE,45,0.0,5.8,70,0.00,,,0.00,WUHU21623XXSP,2013-03-09 00:22:00,
2013-03-08 18:27:00,37.4,28.6,29.49,NE,45,7.4,7.4,70,0.00,,,0.00,WUHU21623XXSP,2013-03-09 00:27:00,
2013-03-08 18:32:00,37.2,28.4,29.50,East,90,0.0,7.4,70,0.00,,,0.00,WUHU21623XXSP,2013-03-09 00:32:00,
2013-03-08 18:37:00,37.0,28.5,29.49,ESE,112,0.0,5.6,71,0.00,,,0.00,WUHU21623XXSP,2013-03-09 00:37:00,
2013-03-08 18:42:00,37.0,28.5,29.50,ESE,112,3.8,5.6,71,0.00,,,0.00,WUHU21623XXSP,2013-03-09 00:42:00,
2013-03-08 18:47:00,37.0,28.5,29.50,SE,135,0.0,3.8,71,0.00,,,0.00,WUHU21623XXSP,2013-03-09 00:47:00,
2013-03-08 18:52:00,36.7,28.4,29.50,SE,135,0.0,0.0,71,0.00,,,0.00,WUHU21623XXSP,2013-03-09 00:52:00,
2013-03-08 18:57:00,36.7,28.5,29.49,ESE,112,0.0,0.0,72,0.00,,,0.00,WUHU21623XXSP,2013-03-09 00:57:00,
2013-03-08 19:02:00,36.7,28.5,29.49,ESE,112,0.0,0.0,72,0.00,,,0.00,WUHU21623XXSP,2013-03-09 01:02:00,
2013-03-08 19:07:00,36.5,28.3,29.49,ESE,112,5.4,5.4,72,0.00,,,0.00,WUHU21623XXSP,2013-03-09 01:07:00,
2013-03-08 19:12:00,36.5,28.3,29.49,ESE,112,0.0,5.4,72,0.00,,,0.00,WUHU21623XXSP,2013-03-09 01:12:00,
2013-03-08 19:17:00,36.5,28.3,29.49,East,90,0.0,0.0,72,0.00,,,0.00,WUHU21623XXSP,2013-03-09 01:17:00,
2013-03-08 19:22:00,36.3,28.1,29.48,SE,135,0.0,0.0,73,0.00,,,0.00,WUHU21623XXSP,2013-03-09 01:22:00,
2013-03-08 19:27:00,36.3,28.5,29.48,SE,135,0.0,0.0,73,0.00,,,0.00,WUHU21623XXSP,2013-03-09 01:27:00,
2013-03-08 19:32:00,36.3,28.5,29.48,ESE,112,0.0,3.4,73,0.00,,,0.00,WUHU21623XXSP,2013-03-09 01:32:00,
2013-03-08 19:37:00,36.5,29.0,29.47,ESE,112,0.0,3.4,74,0.00,,,0.00,WUHU21623XXSP,2013-03-09 01:37:00,
2013-03-08 19:42:00,36.7,29.2,29.47,SE,135,0.0,3.6,74,0.00,,,0.00,WUHU21623XXSP,2013-03-09 01:42:00,
2013-03-08 19:47:00,36.9,29.3,29.47,NE,45,0.0,3.6,74,0.00,,,0.00,WUHU21623XXSP,2013-03-09 01:47:00,
2013-03-08 19:52:00,37.0,29.5,29.47,ESE,112,0.9,0.9,74,0.00,,,0.00,WUHU21623XXSP,2013-03-09 01:52:00,
2013-03-08 19:57:00,37.0,29.5,29.47,ESE,112,0.9,0.9,74,0.00,,,0.00,WUHU21623XXSP,2013-03-09 01:57:00,
2013-03-08 20:02:00,37.2,29.7,29.46,ESE,112,2.0,2.0,74,0.00,,,0.00,WUHU21623XXSP,2013-03-09 02:02:00,
2013-03-08 20:07:00,37.2,29.7,29.46,ESE,112,5.1,6.9,74,0.00,,,0.00,WUHU21623XXSP,2013-03-09 02:07:00,
2013-03-08 20:12:00,37.2,30.0,29.46,ESE,112,1.3,6.9,75,0.00,,,0.00,WUHU21623XXSP,2013-03-09 02:12:00,
2013-03-08 20:17:00,37.2,30.0,29.46,ESE,112,2.5,6.0,75,0.00,,,0.00,WUHU21623XXSP,2013-03-09 02:17:00,
2013-03-08 20:22:00,37.2,30.0,29.46,SE,135,5.4,5.4,75,0.00,,,0.00,WUHU21623XXSP,2013-03-09 02:22:00,
2013-03-08 20:27:00,37.0,30.0,29.45,SE,135,5.4,5.4,75,0.00,,,0.00,WUHU21623XXSP,2013-03-09 02:27:00,
2013-03-08 20:32:00,37.0,29.8,29.45,ESE,112,1.6,5.4,75,0.00,,,0.00,WUHU21623XXSP,2013-03-09 02:32:00,
2013-03-08 20:37:00,37.0,29.8,29.45,ESE,112,4.0,7.6,75,0.00,,,0.00,WUHU21623XXSP,2013-03-09 02:37:00,
2013-03-08 20:42:00,36.9,29.8,29.45,ESE,112,0.0,7.6,75,0.00,,,0.00,WUHU21623XXSP,2013-03-09 02:42:00,
2013-03-08 20:47:00,36.9,29.7,29.45,SSE,157,8.1,9.2,75,0.00,,,0.00,WUHU21623XXSP,2013-03-09 02:47:00,
2013-03-08 20:52:00,36.7,29.5,29.45,NNE,22,0.0,9.2,75,0.00,,,0.00,WUHU21623XXSP,2013-03-09 02:52:00,
2013-03-08 20:57:00,36.5,29.6,29.45,SE,135,1.1,8.1,76,0.00,,,0.00,WUHU21623XXSP,2013-03-09 02:57:00,
2013-03-08 21:02:00,36.5,29.6,29.45,SE,135,7.6,7.6,76,0.00,,,0.00,WUHU21623XXSP,2013-03-09 03:02:00,
2013-03-08 21:07:00,36.3,29.4,29.44,SE,135,4.0,7.6,76,0.00,,,0.00,WUHU21623XXSP,2013-03-09 03:07:00,
2013-03-08 21:12:00,36.3,29.4,29.44,SE,135,3.1,4.0,76,0.00,,,0.00,WUHU21623XXSP,2013-03-09 03:12:00,
2013-03-08 21:17:00,36.3,29.4,29.44,ESE,112,3.1,3.1,76,0.00,,,0.00,WUHU21623XXSP,2013-03-09 03:17:00,
2013-03-08 21:22:00,36.3,29.4,29.44,ESE,112,0.0,3.1,77,0.00,,,0.00,WUHU21623XXSP,2013-03-09 03:22:00,
2013-03-08 21:27:00,36.3,29.8,29.44,SE,135,0.7,2.5,77,0.00,,,0.00,WUHU21623XXSP,2013-03-09 03:27:00,
2013-03-08 21:32:00,36.3,29.8,29.44,SE,135,7.4,7.4,77,0.00,,,0.00,WUHU21623XXSP,2013-03-09 03:32:00,
2013-03-08 21:37:00,36.3,29.8,29.44,SE,135,0.0,7.4,77,0.00,,,0.00,WUHU21623XXSP,2013-03-09 03:37:00,
2013-03-08 21:42:00,36.3,29.8,29.44,SE,135,3.1,4.5,77,0.00,,,0.00,WUHU21623XXSP,2013-03-09 03:42:00,
2013-03-08 21:47:00,36.5,29.9,29.44,SE,135,6.5,6.5,77,0.00,,,0.00,WUHU21623XXSP,2013-03-09 03:47:00,
2013-03-08 21:52:00,36.5,29.9,29.44,SE,135,0.0,7.8,77,0.00,,,0.00,WUHU21623XXSP,2013-03-09 03:52:00,
2013-03-08 21:57:00,36.5,29.9,29.43,ESE,112,0.0,7.8,77,0.00,,,0.00,WUHU21623XXSP,2013-03-09 03:57:00,
2013-03-08 22:02:00,36.5,29.9,29.43,SE,135,9.2,9.2,77,0.00,,,0.00,WUHU21623XXSP,2013-03-09 04:02:00,
2013-03-08 22:07:00,36.5,29.9,29.43,SE,135,4.3,9.2,77,0.00,,,0.00,WUHU21623XXSP,2013-03-09 04:07:00,
2013-03-08 22:12:00,36.5,29.9,29.43,SE,135,4.0,7.8,77,0.00,,,0.00,WUHU21623XXSP,2013-03-09 04:12:00,
2013-03-08 22:17:00,36.5,30.3,29.43,SSE,157,0.7,6.9,78,0.00,,,0.00,WUHU21623XXSP,2013-03-09 04:17:00,
2013-03-08 22:22:00,36.5,30.3,29.43,SE,135,0.0,6.9,78,0.00,,,0.00,WUHU21623XXSP,2013-03-09 04:22:00,
2013-03-08 22:27:00,36.7,30.5,29.43,SE,135,0.0,0.7,78,0.00,,,0.00,WUHU21623XXSP,2013-03-09 04:27:00,
2013-03-08 22:32:00,36.7,30.5,29.43,South,180,8.1,8.1,78,0.00,,,0.00,WUHU21623XXSP,2013-03-09 04:32:00,
2013-03-08 22:37:00,36.7,30.5,29.43,South,180,6.0,8.1,78,0.00,,,0.00,WUHU21623XXSP,2013-03-09 04:37:00,
2013-03-08 22:57:00,37.0,30.5,29.43,SSE,158,1.6,1.6,77,0.00,,,0.00,WUHU21623XXSP,2013-03-09 04:57:00,
2013-03-08 23:57:00,36.7,30.5,29.41,SSE,158,4.5,4.5,78,0.00,,,0.00,WUHU21623XXSP,2013-03-09 05:57:00,